sensor_id;sensor_type;location;lat;lon;timestamp;pressure;altitude;pressure_sealevel;temperature;humidity
80627;BME280;69982;51.758;5.784;2023-08-07T00:02:13;101214.79;;;14.17;81.43
80627;BME280;69982;51.758;5.784;2023-08-07T00:04:41;101209.03;;;14.15;81.69
80627;BME280;69982;51.758;5.784;2023-08-07T00:07:09;101213.02;;;14.17;81.70
80627;BME280;69982;51.758;5.784;2023-08-07T00:09:36;101205.08;;;14.15;81.74
80627;BME280;69982;51.758;5.784;2023-08-07T00:12:04;101210.73;;;14.16;81.73
80627;BME280;69982;51.758;5.784;2023-08-07T00:14:32;101215.27;;;14.16;81.85
80627;BME280;69982;51.758;5.784;2023-08-07T00:16:59;101212.90;;;14.13;81.67
80627;BME280;69982;51.758;5.784;2023-08-07T00:19:27;101210.66;;;14.12;81.55
80627;BME280;69982;51.758;5.784;2023-08-07T00:21:54;101210.75;;;14.13;81.66
80627;BME280;69982;51.758;5.784;2023-08-07T00:24:22;101205.79;;;14.15;81.50
80627;BME280;69982;51.758;5.784;2023-08-07T00:26:50;101202.64;;;14.12;81.34
80627;BME280;69982;51.758;5.784;2023-08-07T00:29:17;101206.45;;;14.14;81.35
80627;BME280;69982;51.758;5.784;2023-08-07T00:31:45;101209.86;;;14.12;81.30
80627;BME280;69982;51.758;5.784;2023-08-07T00:34:13;101210.20;;;14.14;81.32
80627;BME280;69982;51.758;5.784;2023-08-07T00:36:40;101214.48;;;14.17;81.23
80627;BME280;69982;51.758;5.784;2023-08-07T00:39:08;101216.93;;;14.17;81.30
80627;BME280;69982;51.758;5.784;2023-08-07T00:41:36;101218.23;;;14.17;81.39
80627;BME280;69982;51.758;5.784;2023-08-07T00:44:03;101214.69;;;14.16;81.63
80627;BME280;69982;51.758;5.784;2023-08-07T00:46:31;101210.89;;;14.13;81.90
80627;BME280;69982;51.758;5.784;2023-08-07T00:48:59;101215.63;;;14.15;82.06
80627;BME280;69982;51.758;5.784;2023-08-07T00:51:27;101216.46;;;14.17;82.15
80627;BME280;69982;51.758;5.784;2023-08-07T00:53:54;101213.05;;;14.16;82.18
80627;BME280;69982;51.758;5.784;2023-08-07T00:56:23;101215.19;;;14.18;81.95
80627;BME280;69982;51.758;5.784;2023-08-07T00:58:50;101219.30;;;14.16;82.04
80627;BME280;69982;51.758;5.784;2023-08-07T01:01:18;101222.95;;;14.11;82.07
80627;BME280;69982;51.758;5.784;2023-08-07T01:03:46;101224.27;;;14.09;82.14
80627;BME280;69982;51.758;5.784;2023-08-07T01:06:14;101227.65;;;14.07;82.28
80627;BME280;69982;51.758;5.784;2023-08-07T01:08:41;101228.22;;;14.04;82.52
80627;BME280;69982;51.758;5.784;2023-08-07T01:11:31;101228.86;;;14.04;82.53
80627;BME280;69982;51.758;5.784;2023-08-07T01:14:10;101223.59;;;14.06;82.46
80627;BME280;69982;51.758;5.784;2023-08-07T01:16:42;101227.89;;;14.06;82.18
80627;BME280;69982;51.758;5.784;2023-08-07T01:19:23;101226.53;;;14.06;81.97
80627;BME280;69982;51.758;5.784;2023-08-07T01:22:11;101231.72;;;14.06;81.73
80627;BME280;69982;51.758;5.784;2023-08-07T01:24:41;101227.69;;;14.07;81.32
80627;BME280;69982;51.758;5.784;2023-08-07T01:29:59;101234.28;;;14.05;81.03
80627;BME280;69982;51.758;5.784;2023-08-07T01:35:22;101241.02;;;14.00;80.78
80627;BME280;69982;51.758;5.784;2023-08-07T01:37:55;101246.36;;;14.00;80.55
80627;BME280;69982;51.758;5.784;2023-08-07T01:40:23;101243.80;;;13.98;80.52
80627;BME280;69982;51.758;5.784;2023-08-07T01:42:51;101249.02;;;14.00;80.38
80627;BME280;69982;51.758;5.784;2023-08-07T01:45:25;101250.14;;;14.00;80.40
80627;BME280;69982;51.758;5.784;2023-08-07T01:47:53;101251.36;;;13.97;80.44
80627;BME280;69982;51.758;5.784;2023-08-07T01:50:21;101249.00;;;13.97;80.23
80627;BME280;69982;51.758;5.784;2023-08-07T01:52:50;101247.64;;;13.96;80.11
80627;BME280;69982;51.758;5.784;2023-08-07T01:55:19;101247.45;;;13.98;79.92
80627;BME280;69982;51.758;5.784;2023-08-07T01:57:46;101248.04;;;13.98;79.76
80627;BME280;69982;51.758;5.784;2023-08-07T02:00:14;101248.62;;;13.99;79.85
80627;BME280;69982;51.758;5.784;2023-08-07T02:02:42;101251.31;;;13.99;79.92
80627;BME280;69982;51.758;5.784;2023-08-07T02:05:09;101252.16;;;14.00;79.81
80627;BME280;69982;51.758;5.784;2023-08-07T02:07:37;101255.45;;;13.98;79.86
80627;BME280;69982;51.758;5.784;2023-08-07T02:10:05;101257.66;;;13.98;79.81
80627;BME280;69982;51.758;5.784;2023-08-07T02:12:32;101263.09;;;13.98;79.84
80627;BME280;69982;51.758;5.784;2023-08-07T02:15:00;101259.63;;;13.95;79.93
80627;BME280;69982;51.758;5.784;2023-08-07T02:17:28;101261.38;;;13.94;79.82
80627;BME280;69982;51.758;5.784;2023-08-07T02:20:00;101260.89;;;13.95;79.75
80627;BME280;69982;51.758;5.784;2023-08-07T02:22:27;101253.08;;;13.94;79.56
80627;BME280;69982;51.758;5.784;2023-08-07T02:24:55;101262.35;;;13.97;79.47
80627;BME280;69982;51.758;5.784;2023-08-07T02:27:22;101260.68;;;13.96;79.46
80627;BME280;69982;51.758;5.784;2023-08-07T02:29:50;101263.34;;;13.96;79.49
80627;BME280;69982;51.758;5.784;2023-08-07T02:32:21;101267.84;;;13.97;79.35
80627;BME280;69982;51.758;5.784;2023-08-07T02:34:49;101268.25;;;13.98;79.47
80627;BME280;69982;51.758;5.784;2023-08-07T02:37:17;101265.59;;;13.95;79.53
80627;BME280;69982;51.758;5.784;2023-08-07T02:39:44;101267.23;;;13.96;79.55
80627;BME280;69982;51.758;5.784;2023-08-07T02:42:12;101260.22;;;13.92;79.62
80627;BME280;69982;51.758;5.784;2023-08-07T02:44:40;101265.77;;;13.92;79.62
80627;BME280;69982;51.758;5.784;2023-08-07T02:47:07;101268.45;;;13.91;79.88
80627;BME280;69982;51.758;5.784;2023-08-07T02:49:35;101264.66;;;13.89;79.84
80627;BME280;69982;51.758;5.784;2023-08-07T02:52:03;101269.49;;;13.93;79.83
80627;BME280;69982;51.758;5.784;2023-08-07T02:54:30;101270.04;;;13.95;79.63
80627;BME280;69982;51.758;5.784;2023-08-07T02:56:58;101268.10;;;13.93;79.75
80627;BME280;69982;51.758;5.784;2023-08-07T02:59:26;101268.70;;;13.92;79.70
80627;BME280;69982;51.758;5.784;2023-08-07T03:01:53;101263.33;;;13.91;79.96
80627;BME280;69982;51.758;5.784;2023-08-07T03:04:21;101264.43;;;13.94;79.82
80627;BME280;69982;51.758;5.784;2023-08-07T03:06:48;101266.69;;;13.97;79.82
80627;BME280;69982;51.758;5.784;2023-08-07T03:09:16;101266.50;;;13.99;79.70
80627;BME280;69982;51.758;5.784;2023-08-07T03:11:44;101264.70;;;13.97;79.49
80627;BME280;69982;51.758;5.784;2023-08-07T03:14:11;101260.61;;;13.94;79.53
80627;BME280;69982;51.758;5.784;2023-08-07T03:16:39;101260.91;;;13.97;79.40
80627;BME280;69982;51.758;5.784;2023-08-07T03:19:07;101258.32;;;13.97;79.37
80627;BME280;69982;51.758;5.784;2023-08-07T03:21:34;101257.88;;;13.98;79.44
80627;BME280;69982;51.758;5.784;2023-08-07T03:24:02;101258.66;;;13.97;79.37
80627;BME280;69982;51.758;5.784;2023-08-07T03:26:29;101261.50;;;13.96;79.34
80627;BME280;69982;51.758;5.784;2023-08-07T03:28:57;101258.23;;;13.93;79.46
80627;BME280;69982;51.758;5.784;2023-08-07T03:31:25;101256.27;;;13.93;79.53
80627;BME280;69982;51.758;5.784;2023-08-07T03:33:52;101256.71;;;13.97;79.50
80627;BME280;69982;51.758;5.784;2023-08-07T03:36:21;101257.23;;;13.95;79.65
80627;BME280;69982;51.758;5.784;2023-08-07T03:38:49;101251.91;;;13.96;79.45
80627;BME280;69982;51.758;5.784;2023-08-07T03:41:17;101247.40;;;13.95;79.44
80627;BME280;69982;51.758;5.784;2023-08-07T03:43:45;101251.08;;;13.96;79.44
80627;BME280;69982;51.758;5.784;2023-08-07T03:46:12;101250.20;;;13.98;79.27
80627;BME280;69982;51.758;5.784;2023-08-07T03:48:40;101251.98;;;14.00;79.17
80627;BME280;69982;51.758;5.784;2023-08-07T03:51:08;101252.46;;;14.00;79.02
80627;BME280;69982;51.758;5.784;2023-08-07T03:53:36;101254.86;;;13.98;79.07
80627;BME280;69982;51.758;5.784;2023-08-07T03:56:04;101254.30;;;14.00;78.84
80627;BME280;69982;51.758;5.784;2023-08-07T03:58:31;101256.91;;;14.00;78.79
80627;BME280;69982;51.758;5.784;2023-08-07T04:00:59;101264.78;;;14.03;78.95
80627;BME280;69982;51.758;5.784;2023-08-07T04:03:27;101263.36;;;14.04;78.96
80627;BME280;69982;51.758;5.784;2023-08-07T04:05:55;101271.02;;;14.04;78.99
80627;BME280;69982;51.758;5.784;2023-08-07T04:08:23;101268.81;;;14.01;79.29
80627;BME280;69982;51.758;5.784;2023-08-07T04:11:03;101264.55;;;13.98;79.59
80627;BME280;69982;51.758;5.784;2023-08-07T04:13:31;101263.00;;;13.96;79.84
80627;BME280;69982;51.758;5.784;2023-08-07T04:15:59;101256.39;;;13.93;80.21
80627;BME280;69982;51.758;5.784;2023-08-07T04:18:29;101264.73;;;13.95;80.55
80627;BME280;69982;51.758;5.784;2023-08-07T04:20:57;101262.23;;;13.93;80.79
80627;BME280;69982;51.758;5.784;2023-08-07T04:23:25;101265.45;;;13.90;81.09
80627;BME280;69982;51.758;5.784;2023-08-07T04:25:53;101263.30;;;13.88;81.10
80627;BME280;69982;51.758;5.784;2023-08-07T04:28:21;101264.30;;;13.88;81.41
80627;BME280;69982;51.758;5.784;2023-08-07T04:30:49;101265.40;;;13.86;81.66
80627;BME280;69982;51.758;5.784;2023-08-07T04:33:21;101270.81;;;13.86;81.81
80627;BME280;69982;51.758;5.784;2023-08-07T04:35:48;101278.50;;;13.85;81.97
80627;BME280;69982;51.758;5.784;2023-08-07T04:38:17;101273.73;;;13.83;82.11
80627;BME280;69982;51.758;5.784;2023-08-07T04:40:48;101275.95;;;13.83;82.24
80627;BME280;69982;51.758;5.784;2023-08-07T04:43:17;101276.43;;;13.82;82.49
80627;BME280;69982;51.758;5.784;2023-08-07T04:45:47;101283.80;;;13.83;82.50
80627;BME280;69982;51.758;5.784;2023-08-07T04:48:15;101280.69;;;13.84;82.43
80627;BME280;69982;51.758;5.784;2023-08-07T04:50:43;101286.20;;;13.87;82.47
80627;BME280;69982;51.758;5.784;2023-08-07T04:53:10;101280.46;;;13.88;82.44
80627;BME280;69982;51.758;5.784;2023-08-07T04:55:38;101286.14;;;13.86;82.50
80627;BME280;69982;51.758;5.784;2023-08-07T04:58:06;101287.81;;;13.86;82.66
80627;BME280;69982;51.758;5.784;2023-08-07T05:00:34;101287.79;;;13.85;82.64
80627;BME280;69982;51.758;5.784;2023-08-07T05:03:01;101289.60;;;13.85;82.81
80627;BME280;69982;51.758;5.784;2023-08-07T05:05:29;101291.65;;;13.83;82.86
80627;BME280;69982;51.758;5.784;2023-08-07T05:07:58;101295.34;;;13.84;82.88
80627;BME280;69982;51.758;5.784;2023-08-07T05:10:26;101294.04;;;13.83;83.04
80627;BME280;69982;51.758;5.784;2023-08-07T05:12:54;101298.91;;;13.84;83.09
80627;BME280;69982;51.758;5.784;2023-08-07T05:15:25;101302.08;;;13.87;83.09
80627;BME280;69982;51.758;5.784;2023-08-07T05:17:53;101301.29;;;13.89;83.01
80627;BME280;69982;51.758;5.784;2023-08-07T05:20:21;101303.83;;;13.92;82.95
80627;BME280;69982;51.758;5.784;2023-08-07T05:22:49;101309.47;;;13.91;82.87
80627;BME280;69982;51.758;5.784;2023-08-07T05:25:16;101313.02;;;13.90;83.11
80627;BME280;69982;51.758;5.784;2023-08-07T05:27:45;101311.15;;;13.89;83.07
80627;BME280;69982;51.758;5.784;2023-08-07T05:30:13;101314.55;;;13.91;83.07
80627;BME280;69982;51.758;5.784;2023-08-07T05:32:41;101315.50;;;13.90;83.08
80627;BME280;69982;51.758;5.784;2023-08-07T05:35:09;101318.55;;;13.91;83.29
80627;BME280;69982;51.758;5.784;2023-08-07T05:37:36;101322.77;;;13.92;83.38
80627;BME280;69982;51.758;5.784;2023-08-07T05:40:06;101328.84;;;13.93;83.68
80627;BME280;69982;51.758;5.784;2023-08-07T05:42:34;101329.05;;;13.91;83.72
80627;BME280;69982;51.758;5.784;2023-08-07T05:45:02;101327.31;;;13.90;83.83
80627;BME280;69982;51.758;5.784;2023-08-07T05:47:32;101328.77;;;13.90;83.79
80627;BME280;69982;51.758;5.784;2023-08-07T05:50:00;101334.06;;;13.90;83.77
80627;BME280;69982;51.758;5.784;2023-08-07T05:52:28;101334.14;;;13.91;83.79
80627;BME280;69982;51.758;5.784;2023-08-07T05:54:55;101337.79;;;13.91;83.80
80627;BME280;69982;51.758;5.784;2023-08-07T05:57:24;101341.08;;;13.91;83.77
80627;BME280;69982;51.758;5.784;2023-08-07T05:59:52;101342.73;;;13.94;83.95
80627;BME280;69982;51.758;5.784;2023-08-07T06:02:19;101343.16;;;13.97;83.94
80627;BME280;69982;51.758;5.784;2023-08-07T06:04:47;101347.32;;;13.99;83.91
80627;BME280;69982;51.758;5.784;2023-08-07T06:07:15;101346.87;;;13.99;84.09
80627;BME280;69982;51.758;5.784;2023-08-07T06:09:43;101340.60;;;13.98;84.05
80627;BME280;69982;51.758;5.784;2023-08-07T06:12:11;101342.26;;;14.03;83.95
80627;BME280;69982;51.758;5.784;2023-08-07T06:14:39;101346.45;;;14.05;83.94
80627;BME280;69982;51.758;5.784;2023-08-07T06:17:07;101344.73;;;14.05;83.88
80627;BME280;69982;51.758;5.784;2023-08-07T06:19:34;101349.98;;;14.09;83.97
80627;BME280;69982;51.758;5.784;2023-08-07T06:22:02;101355.58;;;14.09;83.98
80627;BME280;69982;51.758;5.784;2023-08-07T06:24:30;101359.27;;;14.07;84.04
80627;BME280;69982;51.758;5.784;2023-08-07T06:26:57;101369.04;;;14.08;83.99
80627;BME280;69982;51.758;5.784;2023-08-07T06:29:25;101378.11;;;14.08;84.05
80627;BME280;69982;51.758;5.784;2023-08-07T06:31:53;101393.51;;;14.08;84.08
80627;BME280;69982;51.758;5.784;2023-08-07T06:34:21;101391.02;;;14.09;84.01
80627;BME280;69982;51.758;5.784;2023-08-07T06:36:48;101394.29;;;14.10;83.96
80627;BME280;69982;51.758;5.784;2023-08-07T06:39:16;101392.45;;;14.08;84.09
80627;BME280;69982;51.758;5.784;2023-08-07T06:41:43;101394.70;;;14.08;83.93
80627;BME280;69982;51.758;5.784;2023-08-07T06:44:11;101395.42;;;14.08;83.88
80627;BME280;69982;51.758;5.784;2023-08-07T06:46:39;101395.31;;;14.07;83.78
80627;BME280;69982;51.758;5.784;2023-08-07T06:49:06;101397.64;;;14.04;83.53
80627;BME280;69982;51.758;5.784;2023-08-07T06:51:34;101403.52;;;14.00;83.28
80627;BME280;69982;51.758;5.784;2023-08-07T06:54:01;101410.61;;;13.96;82.94
80627;BME280;69982;51.758;5.784;2023-08-07T06:56:29;101414.84;;;13.92;82.76
80627;BME280;69982;51.758;5.784;2023-08-07T06:58:58;101406.36;;;13.87;82.76
80627;BME280;69982;51.758;5.784;2023-08-07T07:01:25;101406.64;;;13.83;82.80
80627;BME280;69982;51.758;5.784;2023-08-07T07:03:53;101402.89;;;13.81;82.76
80627;BME280;69982;51.758;5.784;2023-08-07T07:06:21;101407.48;;;13.85;83.12
80627;BME280;69982;51.758;5.784;2023-08-07T07:08:53;101406.97;;;13.86;83.45
80627;BME280;69982;51.758;5.784;2023-08-07T07:11:23;101411.98;;;13.89;83.44
80627;BME280;69982;51.758;5.784;2023-08-07T07:13:51;101412.58;;;13.93;83.63
80627;BME280;69982;51.758;5.784;2023-08-07T07:16:20;101411.55;;;13.97;83.59
80627;BME280;69982;51.758;5.784;2023-08-07T07:18:51;101418.61;;;14.02;83.78
80627;BME280;69982;51.758;5.784;2023-08-07T07:21:19;101418.15;;;14.08;83.92
80627;BME280;69982;51.758;5.784;2023-08-07T07:23:47;101424.98;;;14.15;84.14
80627;BME280;69982;51.758;5.784;2023-08-07T07:26:15;101428.86;;;14.20;84.12
80627;BME280;69982;51.758;5.784;2023-08-07T07:28:43;101433.79;;;14.30;84.10
80627;BME280;69982;51.758;5.784;2023-08-07T07:31:10;101438.31;;;14.39;84.16
80627;BME280;69982;51.758;5.784;2023-08-07T07:33:39;101439.39;;;14.48;83.63
80627;BME280;69982;51.758;5.784;2023-08-07T07:36:16;101444.09;;;14.53;83.06
80627;BME280;69982;51.758;5.784;2023-08-07T07:38:47;101449.40;;;14.58;83.17
80627;BME280;69982;51.758;5.784;2023-08-07T07:41:15;101454.27;;;14.62;82.69
80627;BME280;69982;51.758;5.784;2023-08-07T07:43:43;101459.65;;;14.65;82.56
80627;BME280;69982;51.758;5.784;2023-08-07T07:46:10;101461.49;;;14.73;82.90
80627;BME280;69982;51.758;5.784;2023-08-07T07:48:38;101463.15;;;14.83;82.83
80627;BME280;69982;51.758;5.784;2023-08-07T07:51:06;101466.44;;;14.95;83.00
80627;BME280;69982;51.758;5.784;2023-08-07T07:53:34;101462.98;;;15.07;83.03
80627;BME280;69982;51.758;5.784;2023-08-07T07:56:01;101463.86;;;15.19;82.33
80627;BME280;69982;51.758;5.784;2023-08-07T07:58:29;101463.17;;;15.25;81.13
80627;BME280;69982;51.758;5.784;2023-08-07T08:00:57;101465.73;;;15.27;80.53
80627;BME280;69982;51.758;5.784;2023-08-07T08:03:25;101469.30;;;15.30;80.24
80627;BME280;69982;51.758;5.784;2023-08-07T08:05:53;101461.56;;;15.31;79.62
80627;BME280;69982;51.758;5.784;2023-08-07T08:08:21;101467.80;;;15.34;79.39
80627;BME280;69982;51.758;5.784;2023-08-07T08:10:48;101478.38;;;15.32;79.39
80627;BME280;69982;51.758;5.784;2023-08-07T08:13:18;101476.98;;;15.29;79.07
80627;BME280;69982;51.758;5.784;2023-08-07T08:15:45;101490.86;;;15.22;79.52
80627;BME280;69982;51.758;5.784;2023-08-07T08:18:13;101490.74;;;15.14;79.90
80627;BME280;69982;51.758;5.784;2023-08-07T08:20:41;101501.30;;;15.10;80.14
80627;BME280;69982;51.758;5.784;2023-08-07T08:23:09;101504.30;;;15.04;80.13
80627;BME280;69982;51.758;5.784;2023-08-07T08:25:36;101513.08;;;15.00;80.23
80627;BME280;69982;51.758;5.784;2023-08-07T08:28:04;101514.09;;;14.96;80.46
80627;BME280;69982;51.758;5.784;2023-08-07T08:30:32;101513.24;;;14.92;80.70
80627;BME280;69982;51.758;5.784;2023-08-07T08:33:00;101517.92;;;14.94;80.97
80627;BME280;69982;51.758;5.784;2023-08-07T08:35:28;101518.45;;;14.97;81.20
80627;BME280;69982;51.758;5.784;2023-08-07T08:37:55;101519.73;;;15.02;81.43
80627;BME280;69982;51.758;5.784;2023-08-07T08:40:23;101512.25;;;15.08;81.48
80627;BME280;69982;51.758;5.784;2023-08-07T08:42:51;101506.65;;;15.18;81.53
80627;BME280;69982;51.758;5.784;2023-08-07T08:45:21;101504.80;;;15.31;81.55
80627;BME280;69982;51.758;5.784;2023-08-07T08:47:51;101507.89;;;15.48;81.09
80627;BME280;69982;51.758;5.784;2023-08-07T08:50:19;101507.55;;;15.58;79.40
80627;BME280;69982;51.758;5.784;2023-08-07T08:52:47;101512.42;;;15.67;78.73
80627;BME280;69982;51.758;5.784;2023-08-07T08:55:15;101509.02;;;15.69;77.92
80627;BME280;69982;51.758;5.784;2023-08-07T08:57:43;101515.23;;;15.75;77.89
80627;BME280;69982;51.758;5.784;2023-08-07T09:00:11;101513.06;;;15.84;78.24
80627;BME280;69982;51.758;5.784;2023-08-07T09:02:51;101510.13;;;15.94;78.02
80627;BME280;69982;51.758;5.784;2023-08-07T09:05:20;101510.98;;;16.05;77.00
80627;BME280;69982;51.758;5.784;2023-08-07T09:07:48;101519.11;;;16.15;76.75
80627;BME280;69982;51.758;5.784;2023-08-07T09:10:17;101524.63;;;16.26;74.87
80627;BME280;69982;51.758;5.784;2023-08-07T09:12:52;101523.31;;;16.33;73.96
80627;BME280;69982;51.758;5.784;2023-08-07T09:15:21;101524.20;;;16.46;74.00
80627;BME280;69982;51.758;5.784;2023-08-07T09:17:51;101522.11;;;16.59;72.99
80627;BME280;69982;51.758;5.784;2023-08-07T09:20:20;101532.60;;;16.70;71.26
80627;BME280;69982;51.758;5.784;2023-08-07T09:22:48;101531.49;;;16.83;70.45
80627;BME280;69982;51.758;5.784;2023-08-07T09:25:26;101538.96;;;16.89;69.45
80627;BME280;69982;51.758;5.784;2023-08-07T09:27:55;101538.26;;;16.96;69.01
80627;BME280;69982;51.758;5.784;2023-08-07T09:30:27;101540.83;;;17.02;68.81
80627;BME280;69982;51.758;5.784;2023-08-07T09:32:59;101540.50;;;17.09;68.73
80627;BME280;69982;51.758;5.784;2023-08-07T09:35:29;101536.84;;;17.16;67.34
80627;BME280;69982;51.758;5.784;2023-08-07T09:37:57;101535.55;;;17.26;67.28
80627;BME280;69982;51.758;5.784;2023-08-07T09:40:25;101539.84;;;17.34;66.15
80627;BME280;69982;51.758;5.784;2023-08-07T09:42:54;101545.79;;;17.40;64.82
80627;BME280;69982;51.758;5.784;2023-08-07T09:45:24;101538.63;;;17.46;65.42
80627;BME280;69982;51.758;5.784;2023-08-07T09:48:02;101543.90;;;17.61;66.65
80627;BME280;69982;51.758;5.784;2023-08-07T09:50:30;101538.91;;;17.73;64.60
80627;BME280;69982;51.758;5.784;2023-08-07T09:52:59;101543.62;;;17.79;63.99
80627;BME280;69982;51.758;5.784;2023-08-07T09:55:27;101548.69;;;17.80;63.21
80627;BME280;69982;51.758;5.784;2023-08-07T09:57:54;101549.75;;;17.73;62.53
80627;BME280;69982;51.758;5.784;2023-08-07T10:00:22;101561.45;;;17.61;62.88
80627;BME280;69982;51.758;5.784;2023-08-07T10:02:50;101562.87;;;17.53;63.20
80627;BME280;69982;51.758;5.784;2023-08-07T10:05:18;101564.71;;;17.44;62.89
80627;BME280;69982;51.758;5.784;2023-08-07T10:07:46;101565.95;;;17.36;62.94
80627;BME280;69982;51.758;5.784;2023-08-07T10:10:14;101573.27;;;17.29;63.26
80627;BME280;69982;51.758;5.784;2023-08-07T10:12:43;101580.86;;;17.25;63.62
80627;BME280;69982;51.758;5.784;2023-08-07T10:15:14;101578.80;;;17.23;64.18
80627;BME280;69982;51.758;5.784;2023-08-07T10:17:42;101583.20;;;17.24;64.34
80627;BME280;69982;51.758;5.784;2023-08-07T10:20:11;101583.10;;;17.25;64.32
80627;BME280;69982;51.758;5.784;2023-08-07T10:22:40;101584.23;;;17.29;64.94
80627;BME280;69982;51.758;5.784;2023-08-07T10:25:09;101593.58;;;17.29;64.97
80627;BME280;69982;51.758;5.784;2023-08-07T10:27:38;101603.70;;;17.25;65.66
80627;BME280;69982;51.758;5.784;2023-08-07T10:30:10;101602.39;;;17.21;65.92
80627;BME280;69982;51.758;5.784;2023-08-07T10:32:42;101603.20;;;17.18;65.70
80627;BME280;69982;51.758;5.784;2023-08-07T10:35:23;101596.82;;;17.22;65.86
80627;BME280;69982;51.758;5.784;2023-08-07T10:37:51;101599.70;;;17.42;67.28
80627;BME280;69982;51.758;5.784;2023-08-07T10:40:21;101594.13;;;17.62;66.62
80627;BME280;69982;51.758;5.784;2023-08-07T10:42:57;101596.90;;;17.82;66.08
80627;BME280;69982;51.758;5.784;2023-08-07T10:45:27;101594.48;;;17.98;64.26
80627;BME280;69982;51.758;5.784;2023-08-07T10:50:34;101592.30;;;18.12;63.85
80627;BME280;69982;51.758;5.784;2023-08-07T10:53:02;101597.32;;;18.16;63.84
80627;BME280;69982;51.758;5.784;2023-08-07T10:55:52;101595.52;;;18.24;64.05
80627;BME280;69982;51.758;5.784;2023-08-07T10:58:29;101596.46;;;18.39;64.30
80627;BME280;69982;51.758;5.784;2023-08-07T11:01:20;101596.89;;;18.50;63.47
80627;BME280;69982;51.758;5.784;2023-08-07T11:03:53;101598.21;;;18.60;63.68
80627;BME280;69982;51.758;5.784;2023-08-07T11:06:27;101601.15;;;18.65;62.29
80627;BME280;69982;51.758;5.784;2023-08-07T11:08:56;101605.16;;;18.64;61.38
80627;BME280;69982;51.758;5.784;2023-08-07T11:11:24;101606.05;;;18.59;61.76
80627;BME280;69982;51.758;5.784;2023-08-07T11:13:51;101616.29;;;18.52;60.82
80627;BME280;69982;51.758;5.784;2023-08-07T11:16:19;101612.98;;;18.40;61.49
80627;BME280;69982;51.758;5.784;2023-08-07T11:18:50;101622.34;;;18.36;61.85
80627;BME280;69982;51.758;5.784;2023-08-07T11:21:18;101624.40;;;18.26;60.59
80627;BME280;69982;51.758;5.784;2023-08-07T11:23:46;101632.09;;;18.16;60.93
80627;BME280;69982;51.758;5.784;2023-08-07T11:26:13;101628.69;;;18.10;61.81
80627;BME280;69982;51.758;5.784;2023-08-07T11:28:41;101632.48;;;18.02;62.25
80627;BME280;69982;51.758;5.784;2023-08-07T11:31:09;101628.95;;;17.95;62.52
80627;BME280;69982;51.758;5.784;2023-08-07T11:33:36;101630.46;;;17.94;62.50
80627;BME280;69982;51.758;5.784;2023-08-07T11:36:10;101627.66;;;17.94;62.65
80627;BME280;69982;51.758;5.784;2023-08-07T11:38:41;101624.61;;;18.00;63.64
80627;BME280;69982;51.758;5.784;2023-08-07T11:41:13;101621.04;;;18.20;63.33
80627;BME280;69982;51.758;5.784;2023-08-07T11:43:41;101617.55;;;18.41;62.63
80627;BME280;69982;51.758;5.784;2023-08-07T11:46:10;101616.27;;;18.60;60.56
80627;BME280;69982;51.758;5.784;2023-08-07T11:48:39;101620.33;;;18.73;59.05
80627;BME280;69982;51.758;5.784;2023-08-07T11:51:07;101623.89;;;18.80;60.30
80627;BME280;69982;51.758;5.784;2023-08-07T11:53:36;101624.36;;;18.86;59.15
80627;BME280;69982;51.758;5.784;2023-08-07T11:56:09;101632.41;;;18.87;58.83
80627;BME280;69982;51.758;5.784;2023-08-07T11:58:39;101626.73;;;18.88;58.22
80627;BME280;69982;51.758;5.784;2023-08-07T12:01:12;101629.09;;;18.90;57.53
80627;BME280;69982;51.758;5.784;2023-08-07T12:06:17;101622.59;;;19.08;57.72
80627;BME280;69982;51.758;5.784;2023-08-07T12:08:45;101620.66;;;19.19;58.38
80627;BME280;69982;51.758;5.784;2023-08-07T12:11:15;101619.09;;;19.33;58.91
80627;BME280;69982;51.758;5.784;2023-08-07T12:13:44;101619.21;;;19.51;59.06
80627;BME280;69982;51.758;5.784;2023-08-07T12:16:13;101618.90;;;19.64;57.95
80627;BME280;69982;51.758;5.784;2023-08-07T12:18:48;101613.60;;;19.76;58.67
80627;BME280;69982;51.758;5.784;2023-08-07T12:21:23;101613.75;;;19.85;57.30
80627;BME280;69982;51.758;5.784;2023-08-07T12:23:55;101620.25;;;19.89;56.80
80627;BME280;69982;51.758;5.784;2023-08-07T12:26:22;101619.28;;;19.92;56.12
80627;BME280;69982;51.758;5.784;2023-08-07T12:28:50;101622.17;;;19.96;57.03
80627;BME280;69982;51.758;5.784;2023-08-07T12:31:18;101620.77;;;19.98;56.29
80627;BME280;69982;51.758;5.784;2023-08-07T12:33:46;101622.43;;;19.99;54.94
80627;BME280;69982;51.758;5.784;2023-08-07T12:36:13;101626.27;;;20.07;54.79
80627;BME280;69982;51.758;5.784;2023-08-07T12:38:45;101627.12;;;20.10;54.45
80627;BME280;69982;51.758;5.784;2023-08-07T12:41:12;101628.69;;;20.09;52.89
80627;BME280;69982;51.758;5.784;2023-08-07T12:43:44;101628.98;;;20.12;51.94
80627;BME280;69982;51.758;5.784;2023-08-07T12:46:12;101627.78;;;20.22;53.27
80627;BME280;69982;51.758;5.784;2023-08-07T12:48:42;101621.48;;;20.40;53.70
80627;BME280;69982;51.758;5.784;2023-08-07T12:51:10;101621.37;;;20.59;53.01
80627;BME280;69982;51.758;5.784;2023-08-07T12:53:38;101623.64;;;20.76;51.67
80627;BME280;69982;51.758;5.784;2023-08-07T12:56:05;101621.50;;;20.91;51.27
80627;BME280;69982;51.758;5.784;2023-08-07T12:58:33;101624.89;;;20.97;49.93
80627;BME280;69982;51.758;5.784;2023-08-07T13:01:01;101631.61;;;20.96;50.02
80627;BME280;69982;51.758;5.784;2023-08-07T13:03:29;101626.23;;;20.97;50.21
80627;BME280;69982;51.758;5.784;2023-08-07T13:05:57;101631.15;;;20.93;49.39
80627;BME280;69982;51.758;5.784;2023-08-07T13:08:24;101628.39;;;20.79;49.21
80627;BME280;69982;51.758;5.784;2023-08-07T13:10:52;101629.64;;;20.73;49.56